Time;durP1;ratioP1;P1;durP2;ratioP2;P2;SDS_P1;SDS_P2;PMS_P1;PMS_P2;Temp;Humidity;BMP_temperature;BMP_pressure;BME280_temperature;BME280_humidity;BME280_pressure;Samples;Min_cycle;Max_cycle;Signal;HPM_P1;HPM_P2
2023/06/28 00:01:40;;;;;;;6.07;3.63;;;;;;;22.13;62.63;100827.75;4975026;28;20473;-89
2023/06/28 00:04:06;;;;;;;5.43;3.72;;;;;;;22.15;62.62;100846.84;4958791;28;20030;-88
2023/06/28 00:06:31;;;;;;;6.47;4.15;;;;;;;22.08;62.50;100835.22;4958584;28;20034;-90
2023/06/28 00:09:00;;;;;;;8.43;4.03;;;;;;;22.03;62.80;100842.72;4974805;28;20432;-89
2023/06/28 00:11:27;;;;;;;7.00;4.20;;;;;;;22.02;62.69;100841.88;4990676;28;20089;-89
2023/06/28 00:13:53;;;;;;;4.85;3.80;;;;;;;21.99;63.14;100847.44;4958108;28;20022;-90
2023/06/28 00:16:18;;;;;;;6.75;3.85;;;;;;;22.09;63.21;100865.03;4974938;28;20033;-87
2023/06/28 00:18:45;;;;;;;9.10;4.28;;;;;;;21.99;63.60;100872.94;4974855;28;20452;-88
2023/06/28 00:21:13;;;;;;;5.70;4.13;;;;;;;21.80;63.96;100858.00;4958895;28;20034;-88
2023/06/28 00:23:39;;;;;;;6.53;4.35;;;;;;;21.76;64.33;100854.84;4974941;28;20034;-88
2023/06/28 00:26:04;;;;;;;5.47;3.95;;;;;;;21.83;64.48;100876.19;4958198;28;20045;-89
2023/06/28 00:28:30;;;;;;;5.97;3.67;;;;;;;21.75;64.61;100866.34;4958202;28;20161;-90
2023/06/28 00:30:55;;;;;;;8.35;3.78;;;;;;;21.71;64.82;100866.75;4958375;28;20030;-91
2023/06/28 00:33:21;;;;;;;6.38;3.78;;;;;;;21.66;64.91;100855.81;4958337;28;20030;-89
2023/06/28 00:35:49;;;;;;;5.88;4.35;;;;;;;21.64;65.46;100868.31;4958315;28;20035;-88
2023/06/28 00:38:15;;;;;;;5.75;3.88;;;;;;;21.58;65.51;100859.16;4958369;28;20018;-88
2023/06/28 00:40:40;;;;;;;7.05;4.18;;;;;;;21.53;65.40;100864.00;4957925;28;20515;-88
2023/06/28 00:43:06;;;;;;;5.25;3.95;;;;;;;21.51;65.92;100849.31;4974054;28;20034;-88
2023/06/28 00:45:31;;;;;;;5.47;4.28;;;;;;;21.61;65.75;100873.84;4958225;28;20512;-88
2023/06/28 00:47:56;;;;;;;11.45;4.50;;;;;;;21.59;66.06;100875.78;4958079;28;20481;-88
2023/06/28 00:50:22;;;;;;;5.82;4.30;;;;;;;21.64;65.61;100884.94;4958269;28;20030;-89
2023/06/28 00:52:47;;;;;;;7.30;4.15;;;;;;;21.55;66.02;100874.41;4974284;28;20045;-88
2023/06/28 00:55:13;;;;;;;7.47;4.03;;;;;;;21.53;65.51;100863.16;4957831;28;20069;-88
2023/06/28 00:57:38;;;;;;;4.75;3.95;;;;;;;21.59;65.92;100887.13;4958247;28;20041;-88
2023/06/28 01:00:09;;;;;;;6.15;4.13;;;;;;;21.62;66.23;100886.03;4958077;28;20042;-88
2023/06/28 01:02:35;;;;;;;7.13;4.32;;;;;;;21.60;66.30;100896.69;4959053;28;20165;-88
2023/06/28 01:05:00;;;;;;;5.15;3.60;;;;;;;21.58;66.73;100895.19;4974489;28;20034;-88
2023/06/28 01:07:27;;;;;;;6.07;3.67;;;;;;;21.58;66.50;100895.19;4957801;28;20407;-88
2023/06/28 01:09:53;;;;;;;5.93;3.72;;;;;;;21.53;66.55;100902.66;4974345;28;20031;-88
2023/06/28 01:12:19;;;;;;;5.30;3.95;;;;;;;21.51;66.80;100907.22;4974190;28;20096;-88
2023/06/28 01:14:44;;;;;;;5.05;3.70;;;;;;;21.45;66.53;100904.19;4957895;28;20027;-90
2023/06/28 01:17:11;;;;;;;6.40;4.18;;;;;;;21.36;66.98;100891.03;4957979;28;20034;-90
2023/06/28 01:19:36;;;;;;;5.22;3.97;;;;;;;21.40;65.01;100909.03;4974219;28;20054;-88
2023/06/28 01:22:03;;;;;;;6.45;3.85;;;;;;;21.36;64.79;100902.41;4957729;28;20032;-90
2023/06/28 01:24:28;;;;;;;5.75;3.67;;;;;;;21.35;64.83;100908.63;4957626;28;20050;-90
2023/06/28 01:26:54;;;;;;;5.40;3.70;;;;;;;21.23;63.98;100895.69;4977683;28;20042;-88
2023/06/28 01:29:23;;;;;;;6.20;3.88;;;;;;;21.33;63.32;100909.72;4961825;28;20496;-89
2023/06/28 01:31:52;;;;;;;6.47;3.50;;;;;;;21.28;62.07;100904.88;4962468;28;20109;-89
2023/06/28 01:34:18;;;;;;;4.63;3.30;;;;;;;21.35;60.70;100911.25;4994066;28;20503;-89
2023/06/28 01:36:43;;;;;;;4.18;3.08;;;;;;;21.44;60.79;100915.69;4961641;28;20085;-89
2023/06/28 01:39:09;;;;;;;7.95;3.17;;;;;;;21.39;59.95;100907.38;4961405;28;20042;-88
2023/06/28 01:41:34;;;;;;;4.65;3.00;;;;;;;21.48;59.25;100917.06;4961602;28;20030;-88
2023/06/28 01:44:00;;;;;;;5.40;3.22;;;;;;;21.50;58.70;100911.66;4977219;28;20420;-88
2023/06/28 01:46:25;;;;;;;3.53;2.75;;;;;;;21.42;58.29;100891.28;4977510;28;20026;-89
2023/06/28 01:48:51;;;;;;;3.88;3.03;;;;;;;21.53;58.34;100903.47;4977540;28;20034;-90
2023/06/28 01:51:16;;;;;;;4.55;2.38;;;;;;;21.61;56.08;100908.06;4977689;28;20062;-88
2023/06/28 01:53:42;;;;;;;4.63;2.80;;;;;;;21.53;55.61;100900.84;4960934;28;20030;-88
2023/06/28 01:56:07;;;;;;;5.30;2.70;;;;;;;21.55;55.56;100912.09;4961241;28;20030;-89
2023/06/28 01:58:33;;;;;;;7.88;2.70;;;;;;;21.39;54.43;100896.00;4977462;28;20038;-88
2023/06/28 02:00:58;;;;;;;3.72;2.47;;;;;;;21.53;54.39;100910.53;4961101;28;20030;-88
2023/06/28 02:03:24;;;;;;;4.53;2.75;;;;;;;21.53;53.85;100918.44;4961087;28;20484;-89
2023/06/28 02:05:49;;;;;;;5.00;2.13;;;;;;;21.54;52.84;100915.69;4977161;28;20027;-89
2023/06/28 02:08:15;;;;;;;4.10;2.33;;;;;;;21.53;52.44;100923.72;4960580;28;20050;-89
2023/06/28 02:10:40;;;;;;;4.53;2.42;;;;;;;21.48;51.73;100924.97;4977197;28;20026;-90
2023/06/28 02:13:05;;;;;;;3.72;2.28;;;;;;;21.43;52.04;100924.56;4960833;28;20034;-89
2023/06/28 02:15:31;;;;;;;3.30;2.05;;;;;;;21.46;51.64;100926.91;4960839;28;20030;-87
2023/06/28 02:17:58;;;;;;;2.92;1.90;;;;;;;21.43;51.04;100921.06;4977055;28;20472;-89
2023/06/28 02:20:23;;;;;;;3.67;1.85;;;;;;;21.40;50.95;100922.19;4977155;28;20554;-89
2023/06/28 02:22:49;;;;;;;6.90;2.20;;;;;;;21.34;50.39;100929.81;4976659;28;20038;-88
2023/06/28 02:25:14;;;;;;;4.15;2.70;;;;;;;21.36;50.48;100931.34;4960738;28;20033;-88
2023/06/28 02:27:40;;;;;;;3.35;2.08;;;;;;;21.31;50.71;100936.16;4960685;28;20121;-89
2023/06/28 02:30:06;;;;;;;2.42;1.50;;;;;;;21.30;50.07;100934.50;4960839;28;20030;-88
2023/06/28 02:32:32;;;;;;;3.50;2.15;;;;;;;21.23;49.94;100938.63;4960698;28;20030;-89
2023/06/28 02:34:57;;;;;;;3.58;2.17;;;;;;;21.11;50.31;100927.38;4976520;28;20026;-91
2023/06/28 02:37:24;;;;;;;2.70;1.90;;;;;;;21.17;49.88;100945.25;4959721;28;20480;-88
2023/06/28 02:39:49;;;;;;;3.08;1.75;;;;;;;21.09;49.87;100928.50;4976451;28;20030;-88
2023/06/28 02:42:14;;;;;;;7.95;2.72;;;;;;;21.17;50.13;100941.81;4976616;28;20026;-88
2023/06/28 02:44:40;;;;;;;3.95;2.15;;;;;;;21.22;49.68;100928.22;4976222;28;20030;-90
2023/06/28 02:47:05;;;;;;;3.60;2.20;;;;;;;21.28;50.46;100936.44;4960323;28;20051;-88
2023/06/28 02:49:31;;;;;;;4.15;2.17;;;;;;;21.18;50.02;100923.25;4975983;28;20022;-88
2023/06/28 02:51:56;;;;;;;4.50;1.85;;;;;;;21.15;49.99;100930.59;4960253;28;20504;-85
2023/06/28 02:54:22;;;;;;;5.32;2.15;;;;;;;21.18;50.50;100943.47;4976388;28;20031;-86
2023/06/28 02:56:47;;;;;;;5.63;2.15;;;;;;;21.23;50.43;100941.25;4992217;28;20484;-85
2023/06/28 02:59:13;;;;;;;2.97;1.73;;;;;;;21.10;50.95;100951.19;4960041;28;20475;-87
2023/06/28 03:01:38;;;;;;;3.53;2.25;;;;;;;21.01;50.65;100950.19;4992367;28;20108;-87
2023/06/28 03:04:04;;;;;;;5.53;2.05;;;;;;;21.02;51.70;100961.56;4975589;28;20031;-86
2023/06/28 03:06:30;;;;;;;2.80;1.75;;;;;;;21.05;51.26;100961.31;4976133;28;20085;-87
2023/06/28 03:08:55;;;;;;;3.70;2.00;;;;;;;20.91;50.80;100955.44;4959777;28;20404;-87
2023/06/28 03:11:20;;;;;;;7.03;2.20;;;;;;;20.83;51.53;100957.91;4959875;28;20026;-86
2023/06/28 03:13:46;;;;;;;5.40;1.90;;;;;;;20.85;51.88;100966.50;4975632;28;20088;-87
2023/06/28 03:16:11;;;;;;;4.15;2.38;;;;;;;20.72;51.67;100950.09;4975818;28;20031;-87
2023/06/28 03:18:37;;;;;;;3.25;1.83;;;;;;;20.77;52.22;100958.44;4959359;28;20030;-87
2023/06/28 03:21:03;;;;;;;2.58;1.88;;;;;;;20.72;51.93;100955.38;4992064;28;20092;-86
2023/06/28 03:23:28;;;;;;;3.65;2.05;;;;;;;20.76;51.97;100962.03;4975911;28;20093;-87
2023/06/28 03:25:54;;;;;;;3.38;2.30;;;;;;;20.73;51.85;100964.09;4959566;28;20022;-86
2023/06/28 03:28:19;;;;;;;6.78;2.08;;;;;;;20.57;51.75;100952.28;4959582;28;20030;-86
2023/06/28 03:30:45;;;;;;;3.08;2.03;;;;;;;20.68;52.19;100964.50;4991770;28;20026;-87
2023/06/28 03:33:10;;;;;;;3.35;1.98;;;;;;;20.59;52.48;100945.09;4959125;28;20037;-87
2023/06/28 03:35:35;;;;;;;3.10;2.10;;;;;;;20.49;52.45;100948.63;4962873;28;20108;-87
2023/06/28 03:38:01;;;;;;;2.58;1.67;;;;;;;20.55;52.81;100969.97;4978599;28;20419;-86
2023/06/28 03:40:28;;;;;;;3.25;2.25;;;;;;;20.54;52.85;100952.50;5010725;28;20022;-87
2023/06/28 03:42:53;;;;;;;4.15;2.45;;;;;;;20.50;53.40;100947.66;4994655;28;20025;-86
2023/06/28 03:45:19;;;;;;;3.13;2.03;;;;;;;20.56;53.55;100940.09;4978318;28;20029;-86
2023/06/28 03:47:45;;;;;;;3.20;1.80;;;;;;;20.64;52.62;100952.56;4978072;28;20041;-87
2023/06/28 03:50:11;;;;;;;2.50;1.92;;;;;;;20.66;52.61;100957.72;4994487;28;20026;-86
2023/06/28 03:52:36;;;;;;;3.20;1.60;;;;;;;20.61;53.48;100963.34;4993921;28;20057;-87
2023/06/28 03:55:06;;;;;;;3.70;2.40;;;;;;;20.58;53.00;100940.78;4994335;28;20026;-88
2023/06/28 03:57:32;;;;;;;5.72;1.90;;;;;;;20.67;53.04;100962.84;4978207;28;20026;-87
2023/06/28 03:59:57;;;;;;;4.70;2.17;;;;;;;20.66;53.76;100945.41;4978162;28;20083;-87
2023/06/28 04:02:23;;;;;;;3.80;1.98;;;;;;;20.69;53.84;100955.63;4993894;28;20030;-86
2023/06/28 04:04:48;;;;;;;3.03;2.17;;;;;;;20.65;53.56;100956.03;5010303;28;20044;-86
2023/06/28 04:07:14;;;;;;;3.10;2.03;;;;;;;20.62;54.51;100939.56;4977399;28;20030;-86
2023/06/28 04:09:39;;;;;;;4.43;2.10;;;;;;;20.73;53.60;100957.03;4976738;28;20496;-87
2023/06/28 04:12:05;;;;;;;3.47;2.25;;;;;;;20.63;53.25;100950.91;4975534;28;20093;-89
2023/06/28 04:14:31;;;;;;;4.15;2.38;;;;;;;20.66;53.55;100957.72;4960646;28;20563;-88
2023/06/28 04:16:56;;;;;;;4.13;2.30;;;;;;;20.64;53.85;100947.31;4999839;28;20102;-91
2023/06/28 04:19:22;;;;;;;4.47;1.90;;;;;;;20.53;53.95;100952.66;4962137;28;20030;-90
2023/06/28 04:21:47;;;;;;;2.15;1.63;;;;;;;20.54;53.84;100956.94;4953426;28;20034;-86
2023/06/28 04:24:13;;;;;;;3.22;1.92;;;;;;;20.56;53.52;100955.03;4970687;28;20080;-87
2023/06/28 04:26:38;;;;;;;3.63;1.60;;;;;;;20.66;53.68;100960.34;5000508;28;20033;-89
2023/06/28 04:29:03;;;;;;;10.38;2.17;;;;;;;20.65;53.86;100963.91;4975378;28;20441;-89
2023/06/28 04:31:29;;;;;;;3.50;1.77;;;;;;;20.60;53.82;100959.06;4974790;28;20038;-89
2023/06/28 04:33:57;;;;;;;6.07;2.03;;;;;;;20.57;53.22;100956.69;4960881;28;20033;-88
2023/06/28 04:36:25;;;;;;;3.15;1.73;;;;;;;20.65;53.13;100956.88;4969385;28;20049;-90
2023/06/28 04:38:54;;;;;;;3.03;1.88;;;;;;;20.66;52.95;100955.91;4979457;28;20104;-88
2023/06/28 04:41:25;;;;;;;3.65;1.65;;;;;;;20.74;53.05;100963.94;4955395;28;20046;-87
2023/06/28 04:43:57;;;;;;;2.75;1.67;;;;;;;20.66;53.24;100950.66;4970996;28;20027;-90
2023/06/28 04:46:26;;;;;;;3.78;1.83;;;;;;;20.72;52.78;100951.91;4990992;28;20042;-93
2023/06/28 04:48:51;;;;;;;2.65;1.80;;;;;;;20.70;53.20;100956.47;5010179;28;20022;-88
2023/06/28 04:51:17;;;;;;;2.75;1.65;;;;;;;20.70;53.34;100967.81;4992475;28;20038;-86
2023/06/28 04:53:43;;;;;;;2.20;1.80;;;;;;;20.72;53.03;100967.69;5002626;28;20567;-93
2023/06/28 04:56:08;;;;;;;3.35;2.10;;;;;;;20.71;53.77;100981.78;4961551;28;20030;-93
2023/06/28 04:58:34;;;;;;;2.47;1.60;;;;;;;20.74;53.97;100971.00;4963764;28;20026;-90
2023/06/28 05:01:03;;;;;;;2.53;1.85;;;;;;;20.59;53.53;100970.53;4982373;28;20034;-87
2023/06/28 05:03:29;;;;;;;5.57;2.10;;;;;;;20.54;53.99;100957.78;4984674;28;20415;-88
2023/06/28 05:05:54;;;;;;;4.53;2.28;;;;;;;20.69;53.75;100981.09;4971288;28;20031;-92
2023/06/28 05:08:20;;;;;;;9.65;1.80;;;;;;;20.66;54.06;100979.56;4955671;28;20078;-89
2023/06/28 05:10:46;;;;;;;8.90;1.55;;;;;;;20.69;54.00;100976.66;4968538;28;20514;-93
2023/06/28 05:13:12;;;;;;;3.85;1.63;;;;;;;20.69;54.33;100987.19;4975627;28;20031;-90
2023/06/28 05:15:37;;;;;;;3.17;1.83;;;;;;;20.77;54.46;100992.63;4973642;28;20026;-93
2023/06/28 05:18:03;;;;;;;2.50;1.85;;;;;;;20.76;54.70;100993.59;4966194;28;20039;-92
2023/06/28 05:20:29;;;;;;;3.78;2.22;;;;;;;20.74;53.82;100987.59;4991840;28;20034;-92
2023/06/28 05:23:13;;;;;;;5.57;1.42;;;;;;;20.67;53.46;100983.03;4958377;28;20053;-91
2023/06/28 05:25:39;;;;;;;4.63;2.00;;;;;;;20.80;53.12;101007.28;4989488;28;20042;-93
2023/06/28 05:28:05;;;;;;;2.25;1.45;;;;;;;20.72;54.18;101013.19;4972928;28;20034;-88
2023/06/28 05:30:31;;;;;;;2.80;1.58;;;;;;;20.66;53.81;101013.75;4997065;28;20156;-92
2023/06/28 05:32:58;;;;;;;3.08;2.00;;;;;;;20.70;53.90;101015.13;4957232;28;20051;-90
2023/06/28 05:35:24;;;;;;;2.85;1.73;;;;;;;20.58;53.15;101005.69;4960866;28;20066;-91
2023/06/28 05:37:58;;;;;;;2.38;1.55;;;;;;;20.55;53.98;101014.66;4959683;28;20030;-93
2023/06/28 05:40:23;;;;;;;2.38;1.60;;;;;;;20.46;53.70;101004.94;4965543;28;20032;-91
2023/06/28 05:42:49;;;;;;;2.65;1.55;;;;;;;20.52;53.66;101000.94;4959024;28;20034;-90
2023/06/28 05:45:14;;;;;;;3.80;2.03;;;;;;;20.49;53.53;100999.41;4962627;28;20027;-88
2023/06/28 05:47:40;;;;;;;5.20;2.42;;;;;;;20.66;54.26;101021.63;4964960;28;20484;-88
2023/06/28 05:50:05;;;;;;;4.05;2.05;;;;;;;20.70;53.46;101038.78;4971410;28;20018;-88
2023/06/28 05:52:31;;;;;;;3.05;1.65;;;;;;;20.71;52.48;101029.94;4972203;28;20046;-89
2023/06/28 05:54:56;;;;;;;3.70;2.28;;;;;;;20.68;53.59;101035.47;4990920;28;20038;-92
2023/06/28 05:57:22;;;;;;;4.10;2.03;;;;;;;20.58;53.60;101026.69;4964577;28;20038;-90
2023/06/28 05:59:47;;;;;;;3.58;2.08;;;;;;;20.59;53.80;101029.19;4978730;28;20100;-91
2023/06/28 06:02:13;;;;;;;5.75;1.83;;;;;;;20.53;52.91;101013.94;4960169;28;20034;-90
2023/06/28 06:04:38;;;;;;;2.85;1.67;;;;;;;20.62;52.97;101022.84;4987819;28;20519;-90
2023/06/28 06:07:04;;;;;;;3.55;1.90;;;;;;;20.70;53.03;101030.09;4971549;28;20531;-90
2023/06/28 06:09:30;;;;;;;3.90;1.90;;;;;;;20.69;52.33;101034.50;4988330;28;20041;-91
2023/06/28 06:11:55;;;;;;;4.53;1.88;;;;;;;20.64;52.74;101041.94;4978601;28;20027;-89
2023/06/28 06:14:21;;;;;;;3.03;1.60;;;;;;;20.61;52.54;101043.03;4960180;28;20515;-92
2023/06/28 06:16:46;;;;;;;4.78;2.22;;;;;;;20.70;53.06;101051.13;4982536;28;20093;-89
2023/06/28 06:19:12;;;;;;;4.72;2.47;;;;;;;20.53;52.85;101039.38;4977644;28;20504;-92
2023/06/28 06:21:37;;;;;;;6.05;1.80;;;;;;;20.59;53.25;101044.13;4978724;28;20030;-90
2023/06/28 06:24:07;;;;;;;5.75;2.75;;;;;;;20.56;53.72;101042.59;4960166;28;20045;-92
2023/06/28 06:26:35;;;;;;;5.70;2.95;;;;;;;20.65;52.75;101050.66;4961347;28;20022;-91
2023/06/28 06:29:01;;;;;;;3.00;1.77;;;;;;;20.41;53.26;101032.50;4977178;28;20038;-90
2023/06/28 06:31:28;;;;;;;6.57;2.35;;;;;;;20.39;52.90;101032.63;4978764;28;20030;-93
2023/06/28 06:33:56;;;;;;;5.57;2.08;;;;;;;20.45;52.64;101047.94;4986679;28;20431;-90
2023/06/28 06:36:22;;;;;;;3.47;2.00;;;;;;;20.54;52.52;101059.44;4979456;28;20042;-90
2023/06/28 06:38:48;;;;;;;8.07;4.93;;;;;;;20.54;52.37;101051.56;4980993;28;20033;-88
2023/06/28 06:41:13;;;;;;;4.68;2.80;;;;;;;20.50;52.94;101039.66;4992141;28;20030;-87
2023/06/28 06:43:39;;;;;;;6.15;2.42;;;;;;;20.56;53.38;101052.28;4975806;28;20035;-91
2023/06/28 06:46:05;;;;;;;4.70;2.95;;;;;;;20.62;52.72;101064.91;4960545;28;20026;-87
2023/06/28 06:48:30;;;;;;;4.18;2.53;;;;;;;20.54;53.25;101062.06;4977808;28;20037;-92
2023/06/28 06:50:55;;;;;;;8.57;3.40;;;;;;;20.41;52.78;101050.91;4965486;28;20030;-91
2023/06/28 06:53:21;;;;;;;3.58;2.25;;;;;;;20.46;53.28;101054.84;4987580;28;20092;-89
2023/06/28 06:55:46;;;;;;;3.72;2.10;;;;;;;20.55;52.81;101053.22;4961731;28;20092;-89
2023/06/28 06:58:12;;;;;;;5.97;2.63;;;;;;;20.43;52.65;101035.88;4971821;28;20035;-87
2023/06/28 07:00:37;;;;;;;4.57;2.42;;;;;;;20.43;52.61;101034.06;4968210;28;20041;-89
2023/06/28 07:03:03;;;;;;;10.43;3.40;;;;;;;20.55;53.30;101050.59;5002769;28;20034;-90
2023/06/28 07:05:28;;;;;;;9.60;4.05;;;;;;;20.63;53.29;101050.78;4977984;28;20459;-93
2023/06/28 07:07:54;;;;;;;4.88;2.08;;;;;;;20.57;52.69;101051.31;4963339;28;20065;-92
2023/06/28 07:10:20;;;;;;;2.85;1.80;;;;;;;20.49;53.90;101057.22;4977248;28;20389;-88
2023/06/28 07:12:45;;;;;;;5.18;2.50;;;;;;;20.50;53.22;101050.16;4977773;28;20026;-92
2023/06/28 07:15:10;;;;;;;4.43;2.05;;;;;;;20.44;53.64;101063.81;4977034;28;20489;-87
2023/06/28 07:17:36;;;;;;;4.85;2.20;;;;;;;20.41;53.56;101066.66;4977542;28;20038;-90
2023/06/28 07:20:02;;;;;;;6.90;2.90;;;;;;;20.38;54.49;101061.69;4976509;28;20092;-90
2023/06/28 07:22:27;;;;;;;3.33;2.25;;;;;;;20.42;53.83;101068.31;4959416;28;20144;-92
2023/06/28 07:24:53;;;;;;;3.40;2.22;;;;;;;20.39;54.80;101073.84;4963200;28;20389;-93
2023/06/28 07:27:19;;;;;;;3.17;2.13;;;;;;;20.55;54.61;101069.00;4961167;28;20034;-94
2023/06/28 07:29:44;;;;;;;3.97;2.15;;;;;;;20.58;54.05;101079.28;4987409;28;20030;-85
2023/06/28 07:32:10;;;;;;;4.82;2.97;;;;;;;20.53;54.63;101081.44;4979637;28;20176;-90
2023/06/28 07:34:37;;;;;;;2.88;2.33;;;;;;;20.54;55.05;101093.63;4981645;28;20524;-89
2023/06/28 07:37:05;;;;;;;5.28;3.05;;;;;;;20.45;55.01;101055.81;4979099;28;20046;-90
2023/06/28 07:39:35;;;;;;;4.45;2.80;;;;;;;20.47;54.31;101077.53;4998002;28;20028;-92
2023/06/28 07:42:00;;;;;;;8.55;3.35;;;;;;;20.41;55.69;101090.31;4989220;28;20027;-91
2023/06/28 07:44:27;;;;;;;4.57;2.35;;;;;;;20.16;55.35;101071.34;4991170;28;20038;-91
2023/06/28 07:46:52;;;;;;;4.03;2.78;;;;;;;20.13;56.78;101083.88;5003752;28;20558;-90
2023/06/28 07:49:18;;;;;;;5.40;3.15;;;;;;;20.05;56.17;101092.38;4970496;28;20026;-91
2023/06/28 07:51:43;;;;;;;3.88;2.60;;;;;;;19.97;55.90;101100.88;4957889;28;20030;-89
2023/06/28 07:54:09;;;;;;;7.82;3.53;;;;;;;19.85;56.00;101090.53;4968465;28;20042;-85
2023/06/28 07:56:34;;;;;;;3.70;2.45;;;;;;;19.86;55.52;101092.19;4991672;28;20420;-86
2023/06/28 07:59:02;;;;;;;5.15;3.05;;;;;;;19.80;54.46;101109.28;4989121;28;20049;-90
2023/06/28 08:01:28;;;;;;;3.90;2.55;;;;;;;19.73;54.84;101103.66;4959693;28;20105;-92
2023/06/28 08:03:54;;;;;;;5.22;2.63;;;;;;;19.42;55.30;101070.28;4961749;28;20045;-91
2023/06/28 08:06:19;;;;;;;3.67;2.40;;;;;;;19.57;55.49;101099.78;4998813;28;20030;-91
2023/06/28 08:08:47;;;;;;;6.03;3.30;;;;;;;19.43;56.47;101106.06;4992366;28;20058;-90
2023/06/28 08:11:12;;;;;;;7.20;2.75;;;;;;;19.34;57.02;101104.16;4960272;28;20023;-90
2023/06/28 08:13:38;;;;;;;4.18;2.42;;;;;;;19.23;57.15;101117.28;4984584;28;20037;-89
2023/06/28 08:16:04;;;;;;;5.22;2.92;;;;;;;19.20;57.46;101121.00;4995306;28;20030;-92
2023/06/28 08:25:13;;;;;;;5.93;2.92;;;;;;;19.02;58.23;101127.63;4987913;28;20109;-87
2023/06/28 08:27:38;;;;;;;3.70;2.70;;;;;;;19.13;58.82;101144.22;4968653;28;20542;-88
2023/06/28 08:30:04;;;;;;;10.35;3.00;;;;;;;19.05;59.19;101146.59;4982516;28;20029;-90
2023/06/28 08:32:31;;;;;;;5.43;3.08;;;;;;;19.00;60.41;101156.59;4987790;28;20026;-90
2023/06/28 08:34:57;;;;;;;6.90;3.10;;;;;;;18.91;61.15;101141.56;4956523;28;20084;-92
2023/06/28 08:37:23;;;;;;;6.05;3.03;;;;;;;18.93;61.58;101150.16;4944500;28;20054;-93
2023/06/28 08:39:48;;;;;;;4.90;3.13;;;;;;;18.82;62.30;101147.50;4967682;28;20066;-92
2023/06/28 08:42:31;;;;;;;3.83;2.80;;;;;;;18.74;62.08;101152.47;4973627;28;20034;-94
2023/06/28 08:44:59;;;;;;;7.95;4.90;;;;;;;18.73;62.97;101149.03;4978446;28;20045;-93
2023/06/28 08:47:29;;;;;;;9.10;4.30;;;;;;;18.81;62.50;101153.69;4957388;28;20125;-93
2023/06/28 08:49:54;;;;;;;6.88;3.22;;;;;;;18.91;62.35;101173.03;4974922;28;20030;-94
2023/06/28 08:52:20;;;;;;;5.25;3.17;;;;;;;18.94;62.08;101179.81;4960783;28;20033;-89
2023/06/28 08:54:45;;;;;;;5.75;3.60;;;;;;;18.90;61.46;101176.59;4958211;28;20570;-92
2023/06/28 08:57:12;;;;;;;5.75;3.40;;;;;;;18.89;61.92;101190.66;4965521;28;20431;-94
2023/06/28 08:59:38;;;;;;;6.45;3.92;;;;;;;18.91;61.89;101192.22;4970574;28;20041;-93
2023/06/28 09:02:03;;;;;;;7.28;3.85;;;;;;;18.85;62.25;101191.81;4961442;28;20499;-91
2023/06/28 09:04:29;;;;;;;9.43;4.43;;;;;;;18.91;63.23;101194.00;4960204;28;20034;-93
2023/06/28 09:06:58;;;;;;;6.72;4.00;;;;;;;18.83;64.81;101197.19;4960604;28;20018;-92
2023/06/28 09:09:23;;;;;;;6.53;4.22;;;;;;;18.69;64.64;101173.81;4948624;28;20054;-90
2023/06/28 09:11:48;;;;;;;6.80;4.40;;;;;;;18.67;65.29;101193.19;4967678;28;20038;-91
2023/06/28 09:14:14;;;;;;;6.70;4.57;;;;;;;18.69;66.26;101201.78;4990324;28;20048;-95
2023/06/28 09:16:40;;;;;;;6.93;4.13;;;;;;;18.67;66.49;101216.78;4977002;28;20030;-93
2023/06/28 09:19:06;;;;;;;7.65;5.13;;;;;;;18.58;66.94;101219.09;4991476;28;20551;-86
2023/06/28 09:21:33;;;;;;;6.95;4.30;;;;;;;18.62;68.13;101224.94;4995967;28;20123;-92
2023/06/28 09:23:58;;;;;;;6.97;4.25;;;;;;;18.39;68.07;101187.34;4987837;28;20037;-88
2023/06/28 09:26:30;;;;;;;7.85;4.80;;;;;;;18.60;67.48;101229.47;4960130;28;20034;-90
2023/06/28 09:29:00;;;;;;;;;;;;;;;18.59;68.11;101231.25;4969629;28;20046;-87
2023/06/28 09:31:25;;;;;;;7.32;4.65;;;;;;;18.33;69.77;101209.56;4978085;28;20403;-88
2023/06/28 09:33:54;;;;;;;6.32;4.10;;;;;;;18.31;69.47;101223.72;4962560;28;20041;-92
2023/06/28 09:36:19;;;;;;;6.18;4.50;;;;;;;18.20;70.56;101223.66;4970247;28;20066;-92
2023/06/28 09:38:45;;;;;;;6.20;4.22;;;;;;;18.19;70.75;101233.31;4958170;28;20089;-89
2023/06/28 09:41:10;;;;;;;5.55;4.03;;;;;;;18.20;72.07;101255.09;4956752;28;20019;-90
2023/06/28 09:43:37;;;;;;;5.57;4.15;;;;;;;18.12;72.88;101257.41;4974519;28;20030;-92
2023/06/28 09:46:18;;;;;;;7.20;4.43;;;;;;;17.80;74.05;101242.16;4975632;28;20037;-86
2023/06/28 09:48:47;;;;;;;8.57;4.38;;;;;;;17.94;75.22;101260.34;4994702;28;20038;-87
2023/06/28 09:51:15;;;;;;;6.15;4.40;;;;;;;17.78;76.12;101264.97;4977829;28;20397;-86
2023/06/28 09:53:53;;;;;;;6.32;3.90;;;;;;;17.70;76.97;101267.31;4974439;28;20054;-86
2023/06/28 09:56:40;;;;;;;7.25;4.85;;;;;;;17.38;77.37;101241.50;4976319;28;20034;-85
2023/06/28 09:59:06;;;;;;;6.97;4.70;;;;;;;17.59;78.74;101282.84;4979499;28;20045;-90
2023/06/28 10:01:34;;;;;;;5.90;4.03;;;;;;;17.48;80.47;101266.09;4993110;28;20099;-86
2023/06/28 10:03:59;;;;;;;8.32;4.65;;;;;;;17.31;80.55;101255.94;4976233;28;20030;-90
2023/06/28 10:06:26;;;;;;;7.70;5.07;;;;;;;17.46;81.61;101275.81;4976530;28;20041;-86
2023/06/28 10:08:51;;;;;;;10.18;6.13;;;;;;;17.37;81.78;101276.44;4975032;28;20224;-88
2023/06/28 10:11:17;;;;;;;9.40;5.68;;;;;;;17.36;81.82;101277.38;4963643;28;20041;-86
2023/06/28 10:13:43;;;;;;;9.13;5.35;;;;;;;17.35;83.63;101291.41;4962023;28;20126;-89
2023/06/28 10:16:17;;;;;;;11.25;4.90;;;;;;;17.25;83.74;101284.28;4955901;28;20037;-87
2023/06/28 10:18:43;;;;;;;9.10;5.75;;;;;;;17.35;83.90;101298.41;4992471;28;20014;-90
2023/06/28 10:21:08;;;;;;;9.02;5.18;;;;;;;17.11;84.91;101259.06;4976589;28;20037;-90
2023/06/28 10:23:37;;;;;;;11.90;5.65;;;;;;;17.20;85.01;101287.19;4992704;28;20022;-87
2023/06/28 10:26:06;;;;;;;9.02;5.55;;;;;;;17.08;86.83;101280.16;4980179;28;20035;-94
2023/06/28 10:28:32;;;;;;;9.05;5.82;;;;;;;17.06;85.89;101271.56;4963600;28;20542;-90
2023/06/28 10:30:58;;;;;;;11.07;5.80;;;;;;;17.03;86.55;101277.00;4998818;28;20048;-88
2023/06/28 10:33:23;;;;;;;9.05;5.88;;;;;;;17.03;86.49;101277.84;4973000;28;20038;-91
2023/06/28 10:35:49;;;;;;;14.90;6.25;;;;;;;17.00;87.35;101282.41;4957163;28;20050;-89
2023/06/28 10:38:14;;;;;;;8.13;5.38;;;;;;;17.04;87.40;101281.31;4983931;28;20525;-90
2023/06/28 10:40:40;;;;;;;6.65;4.75;;;;;;;16.80;87.30;101254.97;4968045;28;20030;-84
2023/06/28 10:43:05;;;;;;;8.65;4.45;;;;;;;17.05;87.29;101290.81;4990756;28;20030;-88
2023/06/28 10:45:34;;;;;;;8.93;5.93;;;;;;;16.98;87.27;101269.47;4990179;28;20033;-88
2023/06/28 10:48:00;;;;;;;8.77;5.95;;;;;;;17.05;87.92;101264.69;4975017;28;20076;-87
2023/06/28 10:50:25;;;;;;;9.80;5.78;;;;;;;17.21;86.48;101288.88;4977692;28;20462;-86
2023/06/28 10:52:55;;;;;;;7.68;4.82;;;;;;;17.24;86.42;101277.38;4992137;28;20066;-86
2023/06/28 10:55:21;;;;;;;7.43;4.60;;;;;;;17.31;85.49;101273.41;4953667;28;20058;-88
2023/06/28 10:58:11;;;;;;;8.73;5.57;;;;;;;17.31;87.27;101269.03;4973892;28;20069;-89
2023/06/28 11:00:36;;;;;;;10.45;5.22;;;;;;;17.61;87.29;101276.59;4975930;28;20023;-86
2023/06/28 11:03:05;;;;;;;7.97;5.35;;;;;;;17.58;85.13;101263.69;4989934;28;20033;-86
2023/06/28 11:05:53;;;;;;;8.90;5.65;;;;;;;17.71;85.16;101261.13;4975283;28;20030;-86
2023/06/28 11:08:19;;;;;;;11.45;8.40;;;;;;;17.70;83.78;101264.69;4992557;28;20046;-91
2023/06/28 11:10:46;;;;;;;7.22;3.90;;;;;;;17.78;83.13;101257.94;4992184;28;20084;-86
2023/06/28 11:13:32;;;;;;;11.82;4.90;;;;;;;17.89;84.24;101265.06;4990686;28;20018;-86
2023/06/28 11:16:11;;;;;;;6.18;4.22;;;;;;;18.02;85.29;101265.91;4990649;28;20036;-87
2023/06/28 11:18:37;;;;;;;9.00;4.78;;;;;;;18.23;86.14;101254.84;4971489;28;20042;-89
2023/06/28 11:21:03;;;;;;;6.43;3.97;;;;;;;18.18;84.03;101252.53;4968127;28;20034;-89
2023/06/28 11:23:39;;;;;;;5.95;4.00;;;;;;;18.20;79.82;101247.22;5011604;28;20112;-94
2023/06/28 11:26:05;;;;;;;8.32;3.97;;;;;;;18.21;80.54;101256.75;4987851;28;20045;-89
2023/06/28 11:28:32;;;;;;;5.32;3.63;;;;;;;18.17;80.21;101255.28;4976300;28;20065;-93